sensor_id;sensor_type;location;lat;lon;timestamp;temperature;humidity
41838;DHT22;27511;52.042;5.178;2023-05-10T00:00:36;17.00;99.90
41838;DHT22;27511;52.042;5.178;2023-05-10T00:03:01;17.00;99.90
41838;DHT22;27511;52.042;5.178;2023-05-10T00:05:29;17.00;99.90
41838;DHT22;27511;52.042;5.178;2023-05-10T00:07:55;16.90;99.90
41838;DHT22;27511;52.042;5.178;2023-05-10T00:10:20;16.90;99.90
41838;DHT22;27511;52.042;5.178;2023-05-10T00:12:45;16.90;99.90
41838;DHT22;27511;52.042;5.178;2023-05-10T00:15:11;16.80;99.90
41838;DHT22;27511;52.042;5.178;2023-05-10T00:17:36;16.80;99.90
41838;DHT22;27511;52.042;5.178;2023-05-10T00:20:02;16.90;99.90
41838;DHT22;27511;52.042;5.178;2023-05-10T00:22:30;16.90;99.90
41838;DHT22;27511;52.042;5.178;2023-05-10T00:24:55;16.80;99.90
41838;DHT22;27511;52.042;5.178;2023-05-10T00:27:21;16.90;99.90
41838;DHT22;27511;52.042;5.178;2023-05-10T00:29:46;16.90;99.90
41838;DHT22;27511;52.042;5.178;2023-05-10T00:32:12;16.70;99.90
41838;DHT22;27511;52.042;5.178;2023-05-10T00:34:39;16.80;99.90
41838;DHT22;27511;52.042;5.178;2023-05-10T00:37:05;16.90;99.90
41838;DHT22;27511;52.042;5.178;2023-05-10T00:39:30;17.00;99.90
41838;DHT22;27511;52.042;5.178;2023-05-10T00:41:56;17.00;99.90
41838;DHT22;27511;52.042;5.178;2023-05-10T00:44:21;16.90;99.90
41838;DHT22;27511;52.042;5.178;2023-05-10T00:46:47;16.90;99.90
41838;DHT22;27511;52.042;5.178;2023-05-10T00:49:13;16.80;99.90
41838;DHT22;27511;52.042;5.178;2023-05-10T00:51:39;16.80;99.90
41838;DHT22;27511;52.042;5.178;2023-05-10T00:54:04;16.80;99.90
41838;DHT22;27511;52.042;5.178;2023-05-10T00:56:30;16.80;99.90
41838;DHT22;27511;52.042;5.178;2023-05-10T00:58:56;16.80;99.90
41838;DHT22;27511;52.042;5.178;2023-05-10T01:01:22;16.80;99.90
41838;DHT22;27511;52.042;5.178;2023-05-10T01:03:48;16.80;99.90
41838;DHT22;27511;52.042;5.178;2023-05-10T01:06:13;16.70;99.90
41838;DHT22;27511;52.042;5.178;2023-05-10T01:08:39;16.80;99.90
41838;DHT22;27511;52.042;5.178;2023-05-10T01:11:04;16.80;99.90
41838;DHT22;27511;52.042;5.178;2023-05-10T01:15:55;16.90;99.90
41838;DHT22;27511;52.042;5.178;2023-05-10T01:18:21;16.90;99.90
41838;DHT22;27511;52.042;5.178;2023-05-10T01:20:47;17.00;99.90
41838;DHT22;27511;52.042;5.178;2023-05-10T01:23:19;16.90;99.90
41838;DHT22;27511;52.042;5.178;2023-05-10T01:28:39;16.90;99.90
41838;DHT22;27511;52.042;5.178;2023-05-10T01:33:35;16.70;99.90
41838;DHT22;27511;52.042;5.178;2023-05-10T01:36:16;16.70;99.90
41838;DHT22;27511;52.042;5.178;2023-05-10T01:38:49;16.80;99.90
41838;DHT22;27511;52.042;5.178;2023-05-10T01:43:53;16.70;99.90
41838;DHT22;27511;52.042;5.178;2023-05-10T01:46:23;16.40;99.90
41838;DHT22;27511;52.042;5.178;2023-05-10T01:48:54;16.40;99.90
41838;DHT22;27511;52.042;5.178;2023-05-10T01:51:24;16.30;99.90
41838;DHT22;27511;52.042;5.178;2023-05-10T01:53:51;16.10;99.90
41838;DHT22;27511;52.042;5.178;2023-05-10T01:56:19;16.10;99.90
41838;DHT22;27511;52.042;5.178;2023-05-10T01:58:46;16.10;99.90
41838;DHT22;27511;52.042;5.178;2023-05-10T02:01:13;16.00;99.90
41838;DHT22;27511;52.042;5.178;2023-05-10T02:03:39;16.10;99.90
41838;DHT22;27511;52.042;5.178;2023-05-10T02:06:06;16.10;99.90
41838;DHT22;27511;52.042;5.178;2023-05-10T02:08:32;16.30;99.90
41838;DHT22;27511;52.042;5.178;2023-05-10T02:11:00;16.20;99.90
41838;DHT22;27511;52.042;5.178;2023-05-10T02:13:26;16.10;99.90
41838;DHT22;27511;52.042;5.178;2023-05-10T02:15:52;16.20;99.90
41838;DHT22;27511;52.042;5.178;2023-05-10T02:18:18;16.10;99.90
41838;DHT22;27511;52.042;5.178;2023-05-10T02:20:46;15.80;99.90
41838;DHT22;27511;52.042;5.178;2023-05-10T02:23:13;15.70;99.90
41838;DHT22;27511;52.042;5.178;2023-05-10T02:25:38;15.60;99.90
41838;DHT22;27511;52.042;5.178;2023-05-10T02:28:05;15.50;99.90
41838;DHT22;27511;52.042;5.178;2023-05-10T02:30:32;15.50;99.90
41838;DHT22;27511;52.042;5.178;2023-05-10T02:32:57;15.50;99.90
41838;DHT22;27511;52.042;5.178;2023-05-10T02:35:24;15.50;99.90
41838;DHT22;27511;52.042;5.178;2023-05-10T02:37:50;15.60;99.90
41838;DHT22;27511;52.042;5.178;2023-05-10T02:40:16;15.70;99.90
41838;DHT22;27511;52.042;5.178;2023-05-10T02:42:43;15.70;99.90
41838;DHT22;27511;52.042;5.178;2023-05-10T02:45:13;15.70;99.90
41838;DHT22;27511;52.042;5.178;2023-05-10T02:47:40;15.70;99.90
41838;DHT22;27511;52.042;5.178;2023-05-10T02:50:06;15.80;99.90
41838;DHT22;27511;52.042;5.178;2023-05-10T02:52:36;15.90;99.90
41838;DHT22;27511;52.042;5.178;2023-05-10T02:55:02;16.00;99.90
41838;DHT22;27511;52.042;5.178;2023-05-10T02:57:32;16.00;99.90
41838;DHT22;27511;52.042;5.178;2023-05-10T02:59:57;16.00;99.90
41838;DHT22;27511;52.042;5.178;2023-05-10T03:02:23;16.00;99.90
41838;DHT22;27511;52.042;5.178;2023-05-10T03:04:49;15.90;99.90
41838;DHT22;27511;52.042;5.178;2023-05-10T03:07:14;15.90;99.90
41838;DHT22;27511;52.042;5.178;2023-05-10T03:09:40;15.90;99.90
41838;DHT22;27511;52.042;5.178;2023-05-10T03:12:16;16.10;99.90
41838;DHT22;27511;52.042;5.178;2023-05-10T03:17:45;16.20;99.90
41838;DHT22;27511;52.042;5.178;2023-05-10T03:20:16;16.10;99.90
41838;DHT22;27511;52.042;5.178;2023-05-10T03:23:07;16.00;99.90
41838;DHT22;27511;52.042;5.178;2023-05-10T03:25:35;15.90;99.90
41838;DHT22;27511;52.042;5.178;2023-05-10T03:28:01;15.90;99.90
41838;DHT22;27511;52.042;5.178;2023-05-10T03:30:26;15.90;99.90
41838;DHT22;27511;52.042;5.178;2023-05-10T03:32:52;15.90;99.90
41838;DHT22;27511;52.042;5.178;2023-05-10T03:35:18;15.90;99.90
41838;DHT22;27511;52.042;5.178;2023-05-10T03:37:43;15.90;99.90
41838;DHT22;27511;52.042;5.178;2023-05-10T03:40:09;15.80;99.90
41838;DHT22;27511;52.042;5.178;2023-05-10T03:42:34;15.80;99.90
41838;DHT22;27511;52.042;5.178;2023-05-10T03:45:00;15.90;99.90
41838;DHT22;27511;52.042;5.178;2023-05-10T03:47:25;15.80;99.90
41838;DHT22;27511;52.042;5.178;2023-05-10T03:49:51;15.90;99.90
41838;DHT22;27511;52.042;5.178;2023-05-10T03:52:16;15.90;99.90
41838;DHT22;27511;52.042;5.178;2023-05-10T03:54:42;15.90;99.90
41838;DHT22;27511;52.042;5.178;2023-05-10T03:57:07;15.80;99.90
41838;DHT22;27511;52.042;5.178;2023-05-10T03:59:33;15.80;99.90
41838;DHT22;27511;52.042;5.178;2023-05-10T04:01:58;16.10;99.90
41838;DHT22;27511;52.042;5.178;2023-05-10T04:04:24;16.10;99.90
41838;DHT22;27511;52.042;5.178;2023-05-10T04:06:49;16.00;99.90
41838;DHT22;27511;52.042;5.178;2023-05-10T04:09:15;16.10;99.90
41838;DHT22;27511;52.042;5.178;2023-05-10T04:11:41;16.10;99.90
41838;DHT22;27511;52.042;5.178;2023-05-10T04:14:07;16.10;99.90
41838;DHT22;27511;52.042;5.178;2023-05-10T04:16:32;16.10;99.90
41838;DHT22;27511;52.042;5.178;2023-05-10T04:18:58;16.20;99.90
41838;DHT22;27511;52.042;5.178;2023-05-10T04:21:24;16.20;99.90
41838;DHT22;27511;52.042;5.178;2023-05-10T04:23:50;16.20;99.90
41838;DHT22;27511;52.042;5.178;2023-05-10T04:26:15;16.30;99.90
41838;DHT22;27511;52.042;5.178;2023-05-10T04:28:41;16.30;99.90
41838;DHT22;27511;52.042;5.178;2023-05-10T04:31:07;16.30;99.90
41838;DHT22;27511;52.042;5.178;2023-05-10T04:33:33;16.40;99.90
41838;DHT22;27511;52.042;5.178;2023-05-10T04:35:59;16.20;99.90
41838;DHT22;27511;52.042;5.178;2023-05-10T04:38:24;16.40;99.90
41838;DHT22;27511;52.042;5.178;2023-05-10T04:40:50;16.40;99.90
41838;DHT22;27511;52.042;5.178;2023-05-10T04:43:15;16.50;99.90
41838;DHT22;27511;52.042;5.178;2023-05-10T04:45:41;16.50;99.90
41838;DHT22;27511;52.042;5.178;2023-05-10T04:48:06;16.30;99.90
41838;DHT22;27511;52.042;5.178;2023-05-10T04:50:32;16.40;99.90
41838;DHT22;27511;52.042;5.178;2023-05-10T04:52:58;16.30;99.90
41838;DHT22;27511;52.042;5.178;2023-05-10T04:55:24;16.40;99.90
41838;DHT22;27511;52.042;5.178;2023-05-10T04:57:49;16.30;99.90
41838;DHT22;27511;52.042;5.178;2023-05-10T05:00:15;16.30;99.90
41838;DHT22;27511;52.042;5.178;2023-05-10T05:02:44;16.30;99.90
41838;DHT22;27511;52.042;5.178;2023-05-10T05:05:12;16.30;99.90
41838;DHT22;27511;52.042;5.178;2023-05-10T05:07:38;16.40;99.90
41838;DHT22;27511;52.042;5.178;2023-05-10T05:10:06;16.50;99.90
41838;DHT22;27511;52.042;5.178;2023-05-10T05:12:32;16.50;99.90
41838;DHT22;27511;52.042;5.178;2023-05-10T05:14:57;16.50;99.90
41838;DHT22;27511;52.042;5.178;2023-05-10T05:17:23;16.50;99.90
41838;DHT22;27511;52.042;5.178;2023-05-10T05:19:50;16.40;99.90
41838;DHT22;27511;52.042;5.178;2023-05-10T05:22:16;16.40;99.90
41838;DHT22;27511;52.042;5.178;2023-05-10T05:24:41;16.30;99.90
41838;DHT22;27511;52.042;5.178;2023-05-10T05:27:07;16.20;99.90
41838;DHT22;27511;52.042;5.178;2023-05-10T05:29:32;16.00;99.90
41838;DHT22;27511;52.042;5.178;2023-05-10T05:31:58;16.00;99.90
41838;DHT22;27511;52.042;5.178;2023-05-10T05:34:23;15.90;99.90
41838;DHT22;27511;52.042;5.178;2023-05-10T05:36:49;15.90;99.90
41838;DHT22;27511;52.042;5.178;2023-05-10T05:39:15;16.00;99.90
41838;DHT22;27511;52.042;5.178;2023-05-10T05:41:40;15.80;99.90
41838;DHT22;27511;52.042;5.178;2023-05-10T05:44:06;15.60;99.90
41838;DHT22;27511;52.042;5.178;2023-05-10T05:46:31;15.60;99.90
41838;DHT22;27511;52.042;5.178;2023-05-10T05:48:56;15.50;99.90
41838;DHT22;27511;52.042;5.178;2023-05-10T05:51:22;15.40;99.90
41838;DHT22;27511;52.042;5.178;2023-05-10T05:53:47;15.30;99.90
41838;DHT22;27511;52.042;5.178;2023-05-10T05:56:13;15.30;99.90
41838;DHT22;27511;52.042;5.178;2023-05-10T05:58:38;15.20;99.90
41838;DHT22;27511;52.042;5.178;2023-05-10T06:01:04;15.00;99.90
41838;DHT22;27511;52.042;5.178;2023-05-10T06:03:29;15.00;99.90
41838;DHT22;27511;52.042;5.178;2023-05-10T06:05:55;15.10;99.90
41838;DHT22;27511;52.042;5.178;2023-05-10T06:08:20;15.10;99.90
41838;DHT22;27511;52.042;5.178;2023-05-10T06:10:46;15.00;99.90
41838;DHT22;27511;52.042;5.178;2023-05-10T06:13:11;14.90;99.90
41838;DHT22;27511;52.042;5.178;2023-05-10T06:15:37;14.80;99.90
41838;DHT22;27511;52.042;5.178;2023-05-10T06:18:02;14.90;99.90
41838;DHT22;27511;52.042;5.178;2023-05-10T06:20:28;15.00;99.90
41838;DHT22;27511;52.042;5.178;2023-05-10T06:22:54;15.10;99.90
41838;DHT22;27511;52.042;5.178;2023-05-10T06:25:19;15.00;99.90
41838;DHT22;27511;52.042;5.178;2023-05-10T06:27:45;15.10;99.90
41838;DHT22;27511;52.042;5.178;2023-05-10T06:30:10;15.10;99.90
41838;DHT22;27511;52.042;5.178;2023-05-10T06:32:38;15.20;99.90
41838;DHT22;27511;52.042;5.178;2023-05-10T06:35:04;15.30;99.90
41838;DHT22;27511;52.042;5.178;2023-05-10T06:37:29;15.40;99.90
41838;DHT22;27511;52.042;5.178;2023-05-10T06:39:55;15.40;99.90
41838;DHT22;27511;52.042;5.178;2023-05-10T06:42:20;15.50;99.90
41838;DHT22;27511;52.042;5.178;2023-05-10T06:44:45;15.40;99.90
41838;DHT22;27511;52.042;5.178;2023-05-10T06:47:17;15.20;99.90
41838;DHT22;27511;52.042;5.178;2023-05-10T06:49:43;15.10;99.90
41838;DHT22;27511;52.042;5.178;2023-05-10T06:52:08;15.20;99.90
41838;DHT22;27511;52.042;5.178;2023-05-10T06:54:34;15.30;99.90
41838;DHT22;27511;52.042;5.178;2023-05-10T06:56:59;15.30;99.90
41838;DHT22;27511;52.042;5.178;2023-05-10T06:59:25;15.40;99.90
41838;DHT22;27511;52.042;5.178;2023-05-10T07:01:50;15.40;99.90
41838;DHT22;27511;52.042;5.178;2023-05-10T07:04:16;15.40;99.90
41838;DHT22;27511;52.042;5.178;2023-05-10T07:06:42;15.50;99.90
41838;DHT22;27511;52.042;5.178;2023-05-10T07:09:08;15.70;99.90
41838;DHT22;27511;52.042;5.178;2023-05-10T07:11:33;15.60;99.90
41838;DHT22;27511;52.042;5.178;2023-05-10T07:13:59;15.80;99.90
41838;DHT22;27511;52.042;5.178;2023-05-10T07:16:24;15.90;99.90
41838;DHT22;27511;52.042;5.178;2023-05-10T07:18:50;16.10;99.90
41838;DHT22;27511;52.042;5.178;2023-05-10T07:21:16;16.10;99.90
41838;DHT22;27511;52.042;5.178;2023-05-10T07:23:41;16.30;99.90
41838;DHT22;27511;52.042;5.178;2023-05-10T07:26:07;16.40;99.90
41838;DHT22;27511;52.042;5.178;2023-05-10T07:28:33;16.30;99.90
41838;DHT22;27511;52.042;5.178;2023-05-10T07:30:58;16.10;99.90
41838;DHT22;27511;52.042;5.178;2023-05-10T07:33:24;16.10;99.90
41838;DHT22;27511;52.042;5.178;2023-05-10T07:35:49;16.10;99.90
41838;DHT22;27511;52.042;5.178;2023-05-10T07:38:15;16.10;99.90
41838;DHT22;27511;52.042;5.178;2023-05-10T07:40:40;16.20;99.90
41838;DHT22;27511;52.042;5.178;2023-05-10T07:43:06;16.30;99.90
41838;DHT22;27511;52.042;5.178;2023-05-10T07:45:31;16.30;99.90
41838;DHT22;27511;52.042;5.178;2023-05-10T07:47:57;16.20;99.90
41838;DHT22;27511;52.042;5.178;2023-05-10T07:50:23;16.40;99.90
41838;DHT22;27511;52.042;5.178;2023-05-10T07:52:48;16.50;99.90
41838;DHT22;27511;52.042;5.178;2023-05-10T07:55:14;16.60;99.90
41838;DHT22;27511;52.042;5.178;2023-05-10T07:57:39;16.60;99.90
41838;DHT22;27511;52.042;5.178;2023-05-10T08:00:05;16.70;99.90
41838;DHT22;27511;52.042;5.178;2023-05-10T08:02:31;16.80;99.90
41838;DHT22;27511;52.042;5.178;2023-05-10T08:04:57;16.90;99.90
41838;DHT22;27511;52.042;5.178;2023-05-10T08:07:23;16.90;99.90
41838;DHT22;27511;52.042;5.178;2023-05-10T08:09:49;16.90;99.90
41838;DHT22;27511;52.042;5.178;2023-05-10T08:12:15;16.90;99.90
41838;DHT22;27511;52.042;5.178;2023-05-10T08:14:40;16.90;99.90
41838;DHT22;27511;52.042;5.178;2023-05-10T08:17:06;16.90;99.90
41838;DHT22;27511;52.042;5.178;2023-05-10T08:19:31;17.00;99.90
41838;DHT22;27511;52.042;5.178;2023-05-10T08:21:57;16.80;99.90
41838;DHT22;27511;52.042;5.178;2023-05-10T08:24:23;16.70;99.90
41838;DHT22;27511;52.042;5.178;2023-05-10T08:26:48;16.70;99.90
41838;DHT22;27511;52.042;5.178;2023-05-10T08:29:14;16.70;99.90
41838;DHT22;27511;52.042;5.178;2023-05-10T08:31:39;16.80;99.90
41838;DHT22;27511;52.042;5.178;2023-05-10T08:34:05;16.90;99.90
41838;DHT22;27511;52.042;5.178;2023-05-10T08:36:30;17.00;99.90
41838;DHT22;27511;52.042;5.178;2023-05-10T08:38:57;16.80;99.90
41838;DHT22;27511;52.042;5.178;2023-05-10T08:41:23;16.80;99.90
41838;DHT22;27511;52.042;5.178;2023-05-10T08:43:52;16.70;99.90
41838;DHT22;27511;52.042;5.178;2023-05-10T08:46:18;16.60;99.90
41838;DHT22;27511;52.042;5.178;2023-05-10T08:48:44;16.50;99.90
41838;DHT22;27511;52.042;5.178;2023-05-10T08:51:11;16.50;99.90
41838;DHT22;27511;52.042;5.178;2023-05-10T08:53:38;16.50;99.90
41838;DHT22;27511;52.042;5.178;2023-05-10T08:56:03;16.50;99.90
41838;DHT22;27511;52.042;5.178;2023-05-10T08:58:29;16.70;99.90
41838;DHT22;27511;52.042;5.178;2023-05-10T09:00:56;16.70;99.90
41838;DHT22;27511;52.042;5.178;2023-05-10T09:03:22;16.70;99.90
41838;DHT22;27511;52.042;5.178;2023-05-10T09:05:48;16.80;99.90
41838;DHT22;27511;52.042;5.178;2023-05-10T09:08:13;16.80;99.90
41838;DHT22;27511;52.042;5.178;2023-05-10T09:10:42;16.90;99.90
41838;DHT22;27511;52.042;5.178;2023-05-10T09:13:09;17.00;99.90
41838;DHT22;27511;52.042;5.178;2023-05-10T09:15:35;17.20;99.90
41838;DHT22;27511;52.042;5.178;2023-05-10T09:18:00;17.20;99.90
41838;DHT22;27511;52.042;5.178;2023-05-10T09:20:27;17.20;99.90
41838;DHT22;27511;52.042;5.178;2023-05-10T09:22:53;17.40;99.90
41838;DHT22;27511;52.042;5.178;2023-05-10T09:25:19;17.40;99.90
41838;DHT22;27511;52.042;5.178;2023-05-10T09:27:46;17.60;99.90
41838;DHT22;27511;52.042;5.178;2023-05-10T09:30:30;17.60;99.90
41838;DHT22;27511;52.042;5.178;2023-05-10T09:32:57;17.80;99.90
41838;DHT22;27511;52.042;5.178;2023-05-10T09:35:23;18.00;99.90
41838;DHT22;27511;52.042;5.178;2023-05-10T09:37:51;18.00;99.90
41838;DHT22;27511;52.042;5.178;2023-05-10T09:40:18;18.10;99.90
41838;DHT22;27511;52.042;5.178;2023-05-10T09:45:18;18.20;99.90
41838;DHT22;27511;52.042;5.178;2023-05-10T09:47:44;18.20;99.90
41838;DHT22;27511;52.042;5.178;2023-05-10T09:50:09;18.20;99.90
41838;DHT22;27511;52.042;5.178;2023-05-10T09:55:12;18.10;99.90
41838;DHT22;27511;52.042;5.178;2023-05-10T09:57:38;18.00;99.90
41838;DHT22;27511;52.042;5.178;2023-05-10T10:00:04;18.10;99.90
41838;DHT22;27511;52.042;5.178;2023-05-10T10:02:30;18.10;99.90
41838;DHT22;27511;52.042;5.178;2023-05-10T10:04:56;17.80;99.90
41838;DHT22;27511;52.042;5.178;2023-05-10T10:07:22;17.80;99.90
41838;DHT22;27511;52.042;5.178;2023-05-10T10:09:47;17.80;99.90
41838;DHT22;27511;52.042;5.178;2023-05-10T10:12:13;17.80;99.90
41838;DHT22;27511;52.042;5.178;2023-05-10T10:14:38;17.70;99.90
41838;DHT22;27511;52.042;5.178;2023-05-10T10:17:04;17.50;99.90
41838;DHT22;27511;52.042;5.178;2023-05-10T10:19:29;17.70;99.90
41838;DHT22;27511;52.042;5.178;2023-05-10T10:21:55;17.70;99.90
41838;DHT22;27511;52.042;5.178;2023-05-10T10:24:21;17.80;99.90
41838;DHT22;27511;52.042;5.178;2023-05-10T10:26:46;17.70;99.90
41838;DHT22;27511;52.042;5.178;2023-05-10T10:29:30;17.70;99.90
41838;DHT22;27511;52.042;5.178;2023-05-10T10:32:07;17.60;99.90
41838;DHT22;27511;52.042;5.178;2023-05-10T10:34:34;17.90;99.90
41838;DHT22;27511;52.042;5.178;2023-05-10T10:37:04;17.90;99.90
41838;DHT22;27511;52.042;5.178;2023-05-10T10:39:30;17.90;99.90
41838;DHT22;27511;52.042;5.178;2023-05-10T10:41:56;17.90;99.90
41838;DHT22;27511;52.042;5.178;2023-05-10T10:44:22;17.90;99.90
41838;DHT22;27511;52.042;5.178;2023-05-10T10:47:05;17.90;99.90
41838;DHT22;27511;52.042;5.178;2023-05-10T10:54:58;18.00;99.90
41838;DHT22;27511;52.042;5.178;2023-05-10T10:57:24;18.10;99.90
41838;DHT22;27511;52.042;5.178;2023-05-10T10:59:51;18.10;99.90
41838;DHT22;27511;52.042;5.178;2023-05-10T11:05:22;18.40;99.90
41838;DHT22;27511;52.042;5.178;2023-05-10T11:07:57;18.50;99.90
41838;DHT22;27511;52.042;5.178;2023-05-10T11:10:23;18.50;99.90
41838;DHT22;27511;52.042;5.178;2023-05-10T11:13:06;18.60;99.90
41838;DHT22;27511;52.042;5.178;2023-05-10T11:15:33;18.70;99.90
41838;DHT22;27511;52.042;5.178;2023-05-10T11:17:59;18.70;99.90
41838;DHT22;27511;52.042;5.178;2023-05-10T11:20:28;19.00;99.90
41838;DHT22;27511;52.042;5.178;2023-05-10T11:23:10;19.10;99.90
41838;DHT22;27511;52.042;5.178;2023-05-10T11:25:40;19.20;99.90
41838;DHT22;27511;52.042;5.178;2023-05-10T11:28:05;19.30;99.90
41838;DHT22;27511;52.042;5.178;2023-05-10T11:30:31;19.50;99.90
41838;DHT22;27511;52.042;5.178;2023-05-10T11:32:56;19.40;99.90
41838;DHT22;27511;52.042;5.178;2023-05-10T11:35:22;19.60;99.90
41838;DHT22;27511;52.042;5.178;2023-05-10T11:37:47;19.80;99.90
41838;DHT22;27511;52.042;5.178;2023-05-10T11:40:13;19.90;99.90
41838;DHT22;27511;52.042;5.178;2023-05-10T11:42:39;20.00;99.90
41838;DHT22;27511;52.042;5.178;2023-05-10T11:45:05;20.40;99.90
41838;DHT22;27511;52.042;5.178;2023-05-10T11:47:31;20.50;99.90
41838;DHT22;27511;52.042;5.178;2023-05-10T11:49:57;20.30;99.90
41838;DHT22;27511;52.042;5.178;2023-05-10T11:52:22;20.50;99.90
41838;DHT22;27511;52.042;5.178;2023-05-10T11:54:52;20.50;99.90
41838;DHT22;27511;52.042;5.178;2023-05-10T11:57:18;20.30;99.90
41838;DHT22;27511;52.042;5.178;2023-05-10T11:59:44;20.30;99.90
41838;DHT22;27511;52.042;5.178;2023-05-10T12:02:10;20.10;99.90
41838;DHT22;27511;52.042;5.178;2023-05-10T12:04:35;19.90;99.90
41838;DHT22;27511;52.042;5.178;2023-05-10T12:07:01;19.80;99.90
41838;DHT22;27511;52.042;5.178;2023-05-10T12:09:26;19.70;99.90
41838;DHT22;27511;52.042;5.178;2023-05-10T12:11:54;19.60;99.90
41838;DHT22;27511;52.042;5.178;2023-05-10T12:14:21;19.60;99.90
41838;DHT22;27511;52.042;5.178;2023-05-10T12:16:47;19.50;99.90
41838;DHT22;27511;52.042;5.178;2023-05-10T12:19:12;19.40;99.90
41838;DHT22;27511;52.042;5.178;2023-05-10T12:21:43;19.40;99.90
41838;DHT22;27511;52.042;5.178;2023-05-10T12:24:09;19.50;99.90
41838;DHT22;27511;52.042;5.178;2023-05-10T12:26:36;19.60;99.90
41838;DHT22;27511;52.042;5.178;2023-05-10T12:29:15;19.60;99.90
41838;DHT22;27511;52.042;5.178;2023-05-10T12:34:37;19.60;99.90
41838;DHT22;27511;52.042;5.178;2023-05-10T12:37:03;19.50;99.90
41838;DHT22;27511;52.042;5.178;2023-05-10T12:39:42;19.70;99.90
41838;DHT22;27511;52.042;5.178;2023-05-10T12:42:08;19.60;99.90
41838;DHT22;27511;52.042;5.178;2023-05-10T12:44:33;19.60;99.90
41838;DHT22;27511;52.042;5.178;2023-05-10T12:46:59;19.40;99.90
41838;DHT22;27511;52.042;5.178;2023-05-10T12:49:24;19.10;99.90
41838;DHT22;27511;52.042;5.178;2023-05-10T12:51:50;18.80;99.90
41838;DHT22;27511;52.042;5.178;2023-05-10T12:54:15;18.50;99.90
41838;DHT22;27511;52.042;5.178;2023-05-10T12:56:41;18.40;99.90
41838;DHT22;27511;52.042;5.178;2023-05-10T12:59:07;18.30;99.90
41838;DHT22;27511;52.042;5.178;2023-05-10T13:01:33;18.20;99.90
41838;DHT22;27511;52.042;5.178;2023-05-10T13:03:58;18.10;99.90
41838;DHT22;27511;52.042;5.178;2023-05-10T13:06:25;18.10;99.90
41838;DHT22;27511;52.042;5.178;2023-05-10T13:08:50;18.10;99.90
41838;DHT22;27511;52.042;5.178;2023-05-10T13:11:17;18.10;99.90
41838;DHT22;27511;52.042;5.178;2023-05-10T13:13:42;18.20;99.90
41838;DHT22;27511;52.042;5.178;2023-05-10T13:16:08;18.20;99.90
41838;DHT22;27511;52.042;5.178;2023-05-10T13:18:33;18.20;99.90
41838;DHT22;27511;52.042;5.178;2023-05-10T13:20:59;18.20;99.90
41838;DHT22;27511;52.042;5.178;2023-05-10T13:23:24;18.20;99.90
41838;DHT22;27511;52.042;5.178;2023-05-10T13:25:50;18.20;99.90
41838;DHT22;27511;52.042;5.178;2023-05-10T13:28:15;18.30;99.90
41838;DHT22;27511;52.042;5.178;2023-05-10T13:30:41;18.00;99.90
41838;DHT22;27511;52.042;5.178;2023-05-10T13:33:06;18.00;99.90
41838;DHT22;27511;52.042;5.178;2023-05-10T13:35:32;18.00;99.90
41838;DHT22;27511;52.042;5.178;2023-05-10T13:37:57;17.90;99.90
41838;DHT22;27511;52.042;5.178;2023-05-10T13:40:23;17.90;99.90
41838;DHT22;27511;52.042;5.178;2023-05-10T13:42:48;18.00;99.90
41838;DHT22;27511;52.042;5.178;2023-05-10T13:45:14;18.20;99.90
41838;DHT22;27511;52.042;5.178;2023-05-10T13:47:39;18.20;99.90
41838;DHT22;27511;52.042;5.178;2023-05-10T13:50:05;18.40;99.90
41838;DHT22;27511;52.042;5.178;2023-05-10T13:52:31;18.30;99.90
41838;DHT22;27511;52.042;5.178;2023-05-10T13:54:56;18.30;99.90
41838;DHT22;27511;52.042;5.178;2023-05-10T13:57:22;18.50;99.90
41838;DHT22;27511;52.042;5.178;2023-05-10T13:59:49;18.60;99.90
41838;DHT22;27511;52.042;5.178;2023-05-10T14:02:14;18.60;99.90
41838;DHT22;27511;52.042;5.178;2023-05-10T14:04:40;18.40;99.90
41838;DHT22;27511;52.042;5.178;2023-05-10T14:07:05;18.30;99.90
41838;DHT22;27511;52.042;5.178;2023-05-10T14:09:31;18.40;99.90
41838;DHT22;27511;52.042;5.178;2023-05-10T14:11:56;18.60;99.90
41838;DHT22;27511;52.042;5.178;2023-05-10T14:14:22;18.60;99.90
41838;DHT22;27511;52.042;5.178;2023-05-10T14:16:47;18.60;99.90
41838;DHT22;27511;52.042;5.178;2023-05-10T14:19:13;18.40;99.90
41838;DHT22;27511;52.042;5.178;2023-05-10T14:21:38;18.40;99.90
41838;DHT22;27511;52.042;5.178;2023-05-10T14:24:04;18.50;99.90
41838;DHT22;27511;52.042;5.178;2023-05-10T14:26:30;18.40;99.90
41838;DHT22;27511;52.042;5.178;2023-05-10T14:28:55;18.50;99.90
41838;DHT22;27511;52.042;5.178;2023-05-10T14:31:21;18.60;99.90
41838;DHT22;27511;52.042;5.178;2023-05-10T14:33:48;18.50;99.90
41838;DHT22;27511;52.042;5.178;2023-05-10T14:36:13;18.50;99.90
41838;DHT22;27511;52.042;5.178;2023-05-10T14:38:39;18.50;99.90
41838;DHT22;27511;52.042;5.178;2023-05-10T14:41:05;18.40;99.90
41838;DHT22;27511;52.042;5.178;2023-05-10T14:43:31;18.50;99.90
41838;DHT22;27511;52.042;5.178;2023-05-10T14:45:56;18.50;99.90
41838;DHT22;27511;52.042;5.178;2023-05-10T14:48:22;18.50;99.90
41838;DHT22;27511;52.042;5.178;2023-05-10T14:50:47;18.70;99.90
41838;DHT22;27511;52.042;5.178;2023-05-10T14:53:14;18.70;99.90
41838;DHT22;27511;52.042;5.178;2023-05-10T14:55:40;18.80;99.90
41838;DHT22;27511;52.042;5.178;2023-05-10T14:58:05;18.80;99.90
41838;DHT22;27511;52.042;5.178;2023-05-10T15:00:31;18.80;99.90
41838;DHT22;27511;52.042;5.178;2023-05-10T15:02:56;18.80;99.90
41838;DHT22;27511;52.042;5.178;2023-05-10T15:05:22;18.80;99.90
41838;DHT22;27511;52.042;5.178;2023-05-10T15:07:48;18.80;99.90
41838;DHT22;27511;52.042;5.178;2023-05-10T15:10:14;18.80;99.90
41838;DHT22;27511;52.042;5.178;2023-05-10T15:12:39;18.80;99.90
41838;DHT22;27511;52.042;5.178;2023-05-10T15:15:05;18.80;99.90
41838;DHT22;27511;52.042;5.178;2023-05-10T15:17:31;18.70;99.90
41838;DHT22;27511;52.042;5.178;2023-05-10T15:19:56;18.70;99.90
41838;DHT22;27511;52.042;5.178;2023-05-10T15:22:22;18.80;99.90
41838;DHT22;27511;52.042;5.178;2023-05-10T15:24:47;18.90;99.90
41838;DHT22;27511;52.042;5.178;2023-05-10T15:27:13;18.80;99.90
41838;DHT22;27511;52.042;5.178;2023-05-10T15:29:38;18.90;99.90
41838;DHT22;27511;52.042;5.178;2023-05-10T15:32:04;18.80;99.90
41838;DHT22;27511;52.042;5.178;2023-05-10T15:34:29;18.90;99.90
41838;DHT22;27511;52.042;5.178;2023-05-10T15:36:55;19.10;99.90
41838;DHT22;27511;52.042;5.178;2023-05-10T15:39:21;19.10;99.90
41838;DHT22;27511;52.042;5.178;2023-05-10T15:41:46;19.10;99.90
41838;DHT22;27511;52.042;5.178;2023-05-10T15:44:12;19.30;99.90
41838;DHT22;27511;52.042;5.178;2023-05-10T15:46:38;19.20;99.90
41838;DHT22;27511;52.042;5.178;2023-05-10T15:49:03;19.20;99.90
41838;DHT22;27511;52.042;5.178;2023-05-10T15:51:29;19.30;99.90
41838;DHT22;27511;52.042;5.178;2023-05-10T15:53:54;19.30;99.90